Pagrindinis puslapis
METAR-TAF:

METAR-TAF

Oro uostai :

Princesės Julianos tarptautinis oro uostas

Sint Martenas, Nyderlandų Antilai

platuma: 18-03N, ilguma: 063-07W, Aukštis: 4 m

Dabartinis oras

Ataskaita buvo paskelbta 16 minutes, ne 02:00 UTC
Vėjas 4 kt iš Šiaurės Rytų
Temperatūra 26°C
Drėgmė 79%
Slėgis 1016 hPa
Matomumas 10 km arba daugiau
Mažai debesys ne aukštis 2200 ft

METAR: TNCM 290200Z 04004KT 9999 FEW022 26/22 Q1016

Laikas: 22:16 (02:16 UTC)

Prognozė

Ataskaita buvo paskelbta 2 valandos ir 37 minutes, ne 23:39 UTC
Prognozė galioja nuo 29 metu 00 UTC su 29 metu 24 UTC
Vėjas 3 kt iš Šiaurės/Šiaurės Rytų
Matomumas: 10 km
Mažai debesys ne aukštis 1800 ft
Nuo 29 metu 1300 UTC
Vėjas 6 kt iš Rytų/Pietryčių
Matomumas: 10 km
Mažai debesys ne aukštis 2000 ft
Nuo 29 metu 2130 UTC
Vėjas 4 kt iš Šiaurės Rytų
Matomumas: 10 km
Mažai debesys ne aukštis 2000 ft

TAF: TNCM 282339Z 2900/2924 03003KT P6SM FEW018 FM291300 12006KT P6SM FEW020 FM292130 04004KT P6SM FEW020

Orai ataskaitas ir orų prognozės (METAR, TAF).

turimą stotys yra geltonos ir raudonos taškus žemėlapyje.

Perkelti pele per norėdami pamatyti stoties vardą.

Tada spustelėkite, norėdami matyti oro stebėjimo ir prognozės.

Norėdami pakeisti žemėlapį: spustelėkite ant žalios mygtukų su juodo kryžiaus žemyn,; žalią mygtuką su brūkšneliu, jei norite nutolinti; arba žalių rodyklių gretimoms žemėlapius.


METAR-TAF: